createdAt,value
2023-01-30T00:03:25.088Z,-0.64
2023-01-30T00:06:49.071Z,-0.64
2023-01-30T00:10:13.149Z,-0.64
2023-01-30T00:13:37.796Z,-0.64
2023-01-30T00:17:01.660Z,-0.64
2023-01-30T00:20:25.532Z,-0.64
2023-01-30T00:23:49.365Z,-0.62
2023-01-30T00:27:13.356Z,-0.62
2023-01-30T00:30:37.324Z,-0.64
2023-01-30T00:34:01.143Z,-0.65
2023-01-30T00:37:25.142Z,-0.68
2023-01-30T00:40:49.801Z,-0.69
2023-01-30T00:44:31.322Z,-0.68
2023-01-30T00:47:55.250Z,-0.74
2023-01-30T00:51:19.169Z,-0.78
2023-01-30T00:54:44.831Z,-0.79
2023-01-30T00:58:08.783Z,-0.80
2023-01-30T01:01:32.745Z,-0.83
2023-01-30T01:04:56.652Z,-0.86
2023-01-30T01:08:22.662Z,-0.88
2023-01-30T01:11:46.943Z,-0.84
2023-01-30T01:15:13.061Z,-0.84
2023-01-30T01:18:37.180Z,-0.81
2023-01-30T01:22:01.277Z,-0.83
2023-01-30T01:25:25.754Z,-0.83
2023-01-30T01:28:50.135Z,-0.84
2023-01-30T01:32:15.111Z,-0.84
2023-01-30T01:35:44.399Z,-0.84
2023-01-30T01:39:08.503Z,-0.83
2023-01-30T01:42:36.921Z,-0.80
2023-01-30T01:46:10.991Z,-0.74
2023-01-30T01:49:38.094Z,-0.70
2023-01-30T01:53:03.228Z,-0.69
2023-01-30T01:56:27.368Z,-0.71
2023-01-30T01:59:55.823Z,-0.70
2023-01-30T02:03:26.254Z,-0.71
2023-01-30T02:06:50.170Z,-0.71
2023-01-30T02:10:21.931Z,-0.71
2023-01-30T02:13:48.125Z,-0.71
2023-01-30T02:17:12.619Z,-0.69
2023-01-30T02:20:55.154Z,-0.69
2023-01-30T02:24:51.464Z,-0.70
2023-01-30T02:29:02.044Z,-0.70
2023-01-30T02:32:51.884Z,-0.66
2023-01-30T02:36:15.940Z,-0.69
2023-01-30T02:40:07.631Z,-0.73
2023-01-30T02:43:54.545Z,-0.75
2023-01-30T02:47:30.059Z,-0.76
2023-01-30T02:51:02.895Z,-0.75
2023-01-30T02:54:27.713Z,-0.75
2023-01-30T02:57:51.897Z,-0.75
2023-01-30T03:01:44.322Z,-0.76
2023-01-30T03:05:14.700Z,-0.75
2023-01-30T03:08:57.883Z,-0.72
2023-01-30T03:12:33.755Z,-0.71
2023-01-30T03:16:22.204Z,-0.68
2023-01-30T03:19:46.480Z,-0.66
2023-01-30T03:23:10.684Z,-0.65
2023-01-30T03:26:38.821Z,-0.68
2023-01-30T03:30:03.051Z,-0.69
2023-01-30T03:33:27.189Z,-0.67
2023-01-30T03:36:51.657Z,-0.66
2023-01-30T03:40:17.583Z,-0.65
2023-01-30T03:43:42.212Z,-0.63
2023-01-30T03:47:06.703Z,-0.63
2023-01-30T03:50:30.663Z,-0.61
2023-01-30T03:53:54.966Z,-0.60
2023-01-30T03:57:19.479Z,-0.58
2023-01-30T04:00:43.605Z,-0.59
2023-01-30T04:04:07.759Z,-0.58
2023-01-30T04:07:31.825Z,-0.64
2023-01-30T04:10:56.144Z,-0.67
2023-01-30T04:14:20.662Z,-0.70
2023-01-30T04:18:04.671Z,-0.71
2023-01-30T04:21:35.006Z,-0.80
2023-01-30T04:24:58.959Z,-0.82
2023-01-30T04:28:23.164Z,-0.82
2023-01-30T04:31:47.095Z,-0.79
2023-01-30T04:35:20.440Z,-0.77
2023-01-30T04:38:46.680Z,-0.76
2023-01-30T04:42:10.685Z,-0.74
2023-01-30T04:45:44.757Z,-0.74
2023-01-30T04:49:11.091Z,-0.73
2023-01-30T04:52:35.014Z,-0.72
2023-01-30T04:55:58.888Z,-0.69
2023-01-30T04:59:23.634Z,-0.66
2023-01-30T05:02:50.364Z,-0.65
2023-01-30T05:06:14.385Z,-0.67
2023-01-30T05:09:38.616Z,-0.67
2023-01-30T05:13:06.539Z,-0.66
2023-01-30T05:16:30.945Z,-0.69
2023-01-30T05:19:54.769Z,-0.74
2023-01-30T05:23:18.614Z,-0.73
2023-01-30T05:26:42.499Z,-0.72
2023-01-30T05:30:07.097Z,-0.70
2023-01-30T05:33:33.324Z,-0.71
2023-01-30T05:36:57.371Z,-0.71
2023-01-30T05:40:21.218Z,-0.69
2023-01-30T05:43:45.953Z,-0.67
2023-01-30T05:47:09.791Z,-0.66
2023-01-30T05:50:33.783Z,-0.67
2023-01-30T05:53:57.923Z,-0.67
2023-01-30T05:57:21.819Z,-0.67
2023-01-30T06:00:45.644Z,-0.65
2023-01-30T06:04:09.702Z,-0.67
2023-01-30T06:07:33.515Z,-0.67
2023-01-30T06:11:02.449Z,-0.71
2023-01-30T06:14:26.366Z,-0.77
2023-01-30T06:17:50.483Z,-0.80
2023-01-30T06:21:15.524Z,-0.81
2023-01-30T06:24:39.477Z,-0.78
2023-01-30T06:28:03.284Z,-0.74
2023-01-30T06:31:27.180Z,-0.72
2023-01-30T06:34:51.118Z,-0.71
2023-01-30T06:38:14.939Z,-0.72
2023-01-30T06:41:38.746Z,-0.74
2023-01-30T06:45:03.002Z,-0.76
2023-01-30T06:48:27.916Z,-0.76
2023-01-30T06:51:51.818Z,-0.76
2023-01-30T06:55:18.444Z,-0.76
2023-01-30T06:58:42.572Z,-0.75
2023-01-30T07:02:07.586Z,-0.76
2023-01-30T07:05:31.997Z,-0.78
2023-01-30T07:08:58.545Z,-0.79
2023-01-30T07:12:22.543Z,-0.83
2023-01-30T07:15:46.808Z,-0.82
2023-01-30T07:19:10.831Z,-0.82
2023-01-30T07:22:34.780Z,-0.79
2023-01-30T07:25:59.033Z,-0.77
2023-01-30T07:29:23.162Z,-0.75
2023-01-30T07:32:51.291Z,-0.75
2023-01-30T07:36:15.407Z,-0.76
2023-01-30T07:39:39.255Z,-0.72
2023-01-30T07:43:06.100Z,-0.70
2023-01-30T07:46:35.089Z,-0.67
2023-01-30T07:49:59.057Z,-0.64
2023-01-30T07:53:23.025Z,-0.57
2023-01-30T07:56:46.893Z,-0.55
2023-01-30T08:00:12.370Z,-0.51
2023-01-30T08:03:36.262Z,-0.55
2023-01-30T08:07:00.265Z,-0.53
2023-01-30T08:10:24.964Z,-0.46
2023-01-30T08:13:49.678Z,-0.42
2023-01-30T08:17:13.818Z,-0.34
2023-01-30T08:20:38.295Z,-0.29
2023-01-30T08:24:02.127Z,-0.27
2023-01-30T08:27:26.127Z,-0.22
2023-01-30T08:30:52.122Z,-0.19
2023-01-30T08:34:16.105Z,-0.12
2023-01-30T08:37:41.894Z,-0.15
2023-01-30T08:41:07.644Z,-0.15
2023-01-30T08:44:32.559Z,-0.17
2023-01-30T08:48:04.555Z,-0.31
2023-01-30T08:51:28.416Z,-0.36
2023-01-30T08:54:52.298Z,-0.36
2023-01-30T08:58:16.178Z,-0.30
2023-01-30T09:01:40.081Z,-0.20
2023-01-30T09:05:04.677Z,-0.04
2023-01-30T09:08:28.563Z,0.06
2023-01-30T09:11:53.118Z,0.09
2023-01-30T09:15:17.243Z,0.10
2023-01-30T09:18:43.103Z,0.13
2023-01-30T09:22:07.517Z,0.08
2023-01-30T09:25:31.382Z,-0.06
2023-01-30T09:28:55.339Z,-0.08
2023-01-30T09:32:19.483Z,-0.01
2023-01-30T09:35:43.936Z,0.15
2023-01-30T09:39:08.146Z,0.21
2023-01-30T09:42:50.743Z,0.32
2023-01-30T09:46:31.354Z,0.39
2023-01-30T09:50:18.043Z,0.36
2023-01-30T09:54:04.145Z,0.51
2023-01-30T09:57:28.680Z,0.75
2023-01-30T10:00:57.237Z,0.83
2023-01-30T10:05:00.949Z,0.87
2023-01-30T10:08:56.891Z,0.68
2023-01-30T10:12:42.982Z,0.56
2023-01-30T10:16:22.800Z,0.46
2023-01-30T10:19:52.816Z,0.47
2023-01-30T10:23:32.117Z,0.40
2023-01-30T10:26:58.487Z,0.34
2023-01-30T10:30:22.937Z,0.30
2023-01-30T10:34:04.247Z,0.30
2023-01-30T10:37:37.484Z,0.35
2023-01-30T10:41:23.100Z,0.46
2023-01-30T10:44:47.896Z,0.55
2023-01-30T10:48:42.599Z,0.52
2023-01-30T10:52:27.292Z,0.54
2023-01-30T10:55:57.577Z,0.56
2023-01-30T10:59:43.389Z,0.52
2023-01-30T11:03:21.714Z,0.43
2023-01-30T11:06:45.893Z,0.37
2023-01-30T11:10:29.025Z,0.31
2023-01-30T11:14:14.516Z,0.17
2023-01-30T11:17:42.433Z,0.03
2023-01-30T11:21:09.715Z,-0.09
2023-01-30T11:24:42.360Z,-0.09
2023-01-30T11:28:07.238Z,-0.14
2023-01-30T11:31:41.232Z,-0.24
2023-01-30T11:35:11.376Z,-0.24
2023-01-30T11:38:41.263Z,-0.25
2023-01-30T11:42:11.971Z,-0.29
2023-01-30T11:45:39.695Z,-0.42
2023-01-30T11:49:45.424Z,-0.36
2023-01-30T11:53:05.251Z,-0.34
2023-01-30T11:56:48.591Z,-0.33
2023-01-30T12:00:24.970Z,-0.22
2023-01-30T12:03:54.267Z,-0.12
2023-01-30T12:07:30.109Z,-0.05
2023-01-30T12:10:59.841Z,0.01
2023-01-30T12:14:32.776Z,0.10
2023-01-30T12:18:06.446Z,0.16
2023-01-30T12:21:38.408Z,0.20
2023-01-30T12:25:17.445Z,0.22
2023-01-30T12:29:03.173Z,0.15
2023-01-30T12:32:30.029Z,0.13
2023-01-30T12:36:15.119Z,0.01
2023-01-30T12:40:03.569Z,-0.01
2023-01-30T12:43:44.910Z,-0.07
2023-01-30T12:47:47.147Z,-0.16
2023-01-30T12:51:23.453Z,-0.20
2023-01-30T12:54:56.879Z,-0.17
2023-01-30T12:58:36.085Z,-0.12
2023-01-30T13:02:21.862Z,-0.07
2023-01-30T13:06:28.931Z,-0.15
2023-01-30T13:10:09.856Z,-0.12
2023-01-30T13:13:44.990Z,-0.09
2023-01-30T13:17:11.751Z,-0.04
2023-01-30T13:20:53.801Z,-0.08
2023-01-30T13:24:46.612Z,-0.15
2023-01-30T13:28:19.022Z,-0.16
2023-01-30T13:31:56.951Z,-0.24
2023-01-30T13:35:25.693Z,-0.21
2023-01-30T13:39:05.909Z,-0.18
2023-01-30T13:43:01.792Z,-0.21
2023-01-30T13:46:30.555Z,-0.22
2023-01-30T13:50:02.346Z,-0.19
2023-01-30T13:53:39.960Z,-0.13
2023-01-30T13:57:10.377Z,-0.15
2023-01-30T14:00:36.895Z,-0.18
2023-01-30T14:04:44.796Z,-0.19
2023-01-30T14:08:18.643Z,-0.22
2023-01-30T14:11:51.843Z,-0.28
2023-01-30T14:15:15.799Z,-0.30
2023-01-30T14:18:40.238Z,-0.30
2023-01-30T14:22:21.708Z,-0.30
2023-01-30T14:25:48.548Z,-0.31
2023-01-30T14:29:12.419Z,-0.34
2023-01-30T14:33:07.250Z,-0.36
2023-01-30T14:37:07.213Z,-0.37
2023-01-30T14:41:14.219Z,-0.38
2023-01-30T14:45:13.205Z,-0.37
2023-01-30T14:49:34.239Z,-0.34
2023-01-30T14:53:32.173Z,-0.33
2023-01-30T14:57:43.180Z,-0.36
2023-01-30T15:01:41.548Z,-0.37
2023-01-30T15:05:47.338Z,-0.34
2023-01-30T15:09:46.237Z,-0.34
2023-01-30T15:14:12.272Z,-0.31
2023-01-30T15:18:40.130Z,-0.30
2023-01-30T15:23:00.221Z,-0.27
2023-01-30T15:27:30.160Z,-0.24
2023-01-30T15:31:33.284Z,-0.25
2023-01-30T15:35:31.139Z,-0.30
2023-01-30T15:39:38.195Z,-0.32
2023-01-30T15:43:51.228Z,-0.32
2023-01-30T15:48:09.796Z,-0.33
2023-01-30T15:52:08.119Z,-0.32
2023-01-30T15:56:08.169Z,-0.33
2023-01-30T16:00:09.106Z,-0.32
2023-01-30T16:04:07.129Z,-0.27
2023-01-30T16:08:23.148Z,-0.23
2023-01-30T16:12:47.126Z,-0.25
2023-01-30T16:16:47.155Z,-0.23
2023-01-30T16:21:02.084Z,-0.21
2023-01-30T16:25:05.122Z,-0.16
2023-01-30T16:29:05.152Z,-0.16
2023-01-30T16:37:02.101Z,-0.11
2023-01-30T16:41:01.295Z,-0.06
2023-01-30T16:44:59.075Z,-0.01
2023-01-30T16:48:58.015Z,0.04
2023-01-30T16:53:02.249Z,0.07
2023-01-30T16:57:03.336Z,0.10
2023-01-30T17:01:05.420Z,0.16
2023-01-30T17:05:03.244Z,0.18
2023-01-30T17:09:10.694Z,0.23
2023-01-30T17:13:08.113Z,0.28
2023-01-30T17:17:20.185Z,0.32
2023-01-30T17:21:20.836Z,0.36
2023-01-30T17:25:30.177Z,0.39
2023-01-30T17:29:47.358Z,0.41
2023-01-30T17:33:48.986Z,0.44
2023-01-30T17:37:53.207Z,0.49
2023-01-30T17:41:58.997Z,0.52
2023-01-30T17:45:57.749Z,0.55
2023-01-30T17:50:00.187Z,0.57
2023-01-30T17:53:59.167Z,0.58
2023-01-30T17:57:59.334Z,0.60
2023-01-30T18:02:03.951Z,0.63
2023-01-30T18:06:06.970Z,0.64
2023-01-30T18:10:07.055Z,0.66
2023-01-30T18:14:08.002Z,0.68
2023-01-30T18:18:05.952Z,0.70
2023-01-30T18:22:04.899Z,0.72
2023-01-30T18:26:02.909Z,0.74
2023-01-30T18:30:00.906Z,0.75
2023-01-30T18:33:58.930Z,0.77
2023-01-30T18:38:02.372Z,0.78
2023-01-30T18:42:00.886Z,0.80
2023-01-30T18:45:58.986Z,0.82
2023-01-30T18:49:59.528Z,0.84
2023-01-30T18:53:57.931Z,0.86
2023-01-30T18:57:55.851Z,0.86
2023-01-30T19:01:54.966Z,0.86
2023-01-30T19:05:53.045Z,0.88
2023-01-30T19:09:51.078Z,0.88
2023-01-30T19:13:48.843Z,0.92
2023-01-30T19:17:46.860Z,0.92
2023-01-30T19:21:45.828Z,0.93
2023-01-30T19:25:43.910Z,0.94
2023-01-30T19:29:41.866Z,0.93
2023-01-30T19:33:39.982Z,0.95
2023-01-30T19:37:37.799Z,0.96
2023-01-30T19:41:42.107Z,0.97
2023-01-30T19:45:39.772Z,0.97
2023-01-30T19:49:37.843Z,0.99
2023-01-30T19:53:37.778Z,1.01
2023-01-30T19:57:35.837Z,1.04
2023-01-30T20:01:36.981Z,1.04
2023-01-30T20:05:34.874Z,1.06
2023-01-30T20:09:33.849Z,1.07
2023-01-30T20:13:31.762Z,1.09
2023-01-30T20:17:29.802Z,1.09
2023-01-30T20:21:29.824Z,1.08
2023-01-30T20:25:27.691Z,1.07
2023-01-30T20:29:25.983Z,1.07
2023-01-30T20:33:23.713Z,1.09
2023-01-30T20:37:21.869Z,1.12
2023-01-30T20:41:22.717Z,1.13
2023-01-30T20:45:22.095Z,1.14
2023-01-30T20:49:20.732Z,1.17
2023-01-30T20:53:18.781Z,1.19
2023-01-30T20:57:16.854Z,1.22
2023-01-30T21:01:22.776Z,1.25
2023-01-30T21:05:21.054Z,1.26
2023-01-30T21:09:19.732Z,1.28
2023-01-30T21:13:17.675Z,1.30
2023-01-30T21:17:15.809Z,1.31
2023-01-30T21:21:14.665Z,1.32
2023-01-30T21:25:12.774Z,1.30
2023-01-30T21:29:11.668Z,1.31
2023-01-30T21:33:09.749Z,1.31
2023-01-30T21:37:24.597Z,1.29
2023-01-30T21:41:43.686Z,1.26
2023-01-30T21:45:41.689Z,1.26
2023-01-30T21:49:41.802Z,1.27
2023-01-30T21:53:40.618Z,1.30
2023-01-30T21:57:39.120Z,1.32
2023-01-30T22:01:37.689Z,1.32
2023-01-30T22:05:42.730Z,1.34
2023-01-30T22:09:40.607Z,1.36
2023-01-30T22:13:38.714Z,1.36
2023-01-30T22:17:36.584Z,1.36
2023-01-30T22:21:38.768Z,1.35
2023-01-30T22:25:36.616Z,1.34
2023-01-30T22:29:36.136Z,1.36
2023-01-30T22:33:33.540Z,1.35
2023-01-30T22:37:31.676Z,1.34
2023-01-30T22:41:33.559Z,1.32
2023-01-30T22:45:31.564Z,1.28
2023-01-30T22:49:29.636Z,1.28
2023-01-30T22:53:27.642Z,1.25
2023-01-30T22:57:26.543Z,1.24
2023-01-30T23:01:37.087Z,1.23
2023-01-30T23:05:34.532Z,1.20
2023-01-30T23:09:35.669Z,1.15
2023-01-30T23:13:33.509Z,1.10
2023-01-30T23:17:49.520Z,1.09
2023-01-30T23:21:55.477Z,1.08
2023-01-30T23:25:56.620Z,1.10
2023-01-30T23:29:54.470Z,1.11
2023-01-30T23:33:52.498Z,1.10
2023-01-30T23:38:08.579Z,1.07
2023-01-30T23:42:06.522Z,1.07
2023-01-30T23:46:05.484Z,1.08
2023-01-30T23:50:03.478Z,1.08
2023-01-30T23:54:01.428Z,1.09
2023-01-30T23:57:59.495Z,1.09
